Latest Weather Observations for Maria Island

IDT60901

Issued at 6:41 pm EDT Thursday 2 April 2015 (issued every 10 minutes, with the page automatically refreshed every 10 minutes)

About weather observations | Map of Hobart area stations | Latest observations for Hobart area | Other Formats
Station Details ID: 092124 Name: MARIA ISLAND (POINT LESUEUR) Lat: -42.66 Lon: 148.02 Height: 28.0 m
Data from the previous 72 hours. | See also: Recent months at Maria Island
Date/Time
EDT
Tmp

°C
App
Tmp
°C
Dew
Point
°C
Rel
Hum
%
Delta-T

°C
Wind Press
QNH
hPa
Press
MSL
hPa
Rain
since
9 am
mm
Dir
 
Spd
km/h
Gust
km/h
Spd
kts
Gust
kts
02/06:30pm 11.4 1.3 5.9 69 2.6 SSW 48 56 26 30 1021.0 1021.0 0.4
02/06:00pm 11.3 1.4 6.4 72 2.3 S 48 56 26 30 1020.4 1020.4 0.4
02/05:30pm 11.6 0.7 5.5 66 2.8 S 52 63 28 34 1019.9 1019.9 0.4
02/05:00pm 11.2 -1.5 6.9 75 2.0 SSW 63 72 34 39 1019.6 1019.6 0.4
02/04:30pm 12.5 1.0 6.1 65 3.0 SSW 56 70 30 38 1019.4 1019.4 0.4
02/04:00pm 12.7 2.2 7.2 69 2.7 SSW 52 63 28 34 1019.4 1019.4 0.4
02/03:30pm 12.7 1.8 5.6 62 3.3 SSW 52 61 28 33 1019.2 1019.2 0.4
02/03:00pm 12.8 1.5 5.5 61 3.4 SSW 54 61 29 33 1018.9 1018.9 0.4
02/02:30pm 12.8 1.6 5.7 62 3.3 SSW 54 67 29 36 1018.8 1018.8 0.4
02/02:00pm 12.8 1.8 6.6 66 3.0 SSW 54 67 29 36 1018.6 1018.6 0.4
02/01:30pm 12.5 0.9 6.8 68 2.7 SSW 57 69 31 37 1018.5 1018.5 0.4
02/01:00pm 13.3 2.0 7.1 66 3.0 SSW 56 65 30 35 1018.3 1018.3 0.4
02/12:30pm 12.3 1.1 5.7 64 3.1 S 54 63 29 34 1018.0 1018.0 0.4
02/12:00pm 12.1 1.0 7.8 75 2.1 S 56 65 30 35 1017.7 1017.7 0.4
02/11:30am 11.5 0.3 8.2 80 1.6 S 57 69 31 37 1017.5 1017.5 0.4
02/11:00am 11.3 0.8 9.0 86 1.1 S 54 65 29 35 1017.1 1017.1 0.4
02/10:30am 12.3 1.3 9.3 82 1.5 S 57 74 31 40 1016.5 1016.5 0.4
02/10:26am 12.1 1.5 9.8 86 1.2 S 56 74 30 40 1016.4 1016.4 0.4
02/10:00am 11.1 1.2 9.9 92 0.6 S 52 63 28 34 1016.4 1016.4 0.0
02/09:47am 11.2 0.4 9.3 88 1.0 S 56 74 30 40 1016.0 1016.0 0.0
02/09:30am 11.4 0.0 9.1 86 1.1 S 59 70 32 38 1015.9 1015.9 0.0
02/09:00am 12.0 2.1 9.7 86 1.2 S 52 63 28 34 1015.2 1015.2 3.6
02/08:30am 11.3 1.6 9.0 86 1.1 S 50 61 27 33 1014.7 1014.7 3.4
02/08:00am 11.7 2.8 9.1 84 1.3 S 46 69 25 37 1013.8 1013.8 3.4
02/07:58am 11.7 3.5 9.6 87 1.1 S 43 65 23 35 1013.8 1013.8 3.4
02/07:41am 10.8 2.3 9.4 91 0.7 S 44 67 24 36 1013.1 1013.1 3.4
02/07:39am 11.4 4.1 10.3 93 0.6 S 39 63 21 34 1013.2 1013.2 3.4
02/07:30am 11.5 4.3 10.6 94 0.5 S 39 46 21 25 1013.2 1013.2 3.4
02/07:15am 11.4 2.5 10.5 94 0.5 S 48 69 26 37 1012.6 1012.6 3.2
02/07:00am 12.1 4.0 10.0 87 1.1 SSW 43 50 23 27 1012.1 1012.1 3.0
02/06:30am 12.7 3.7 10.2 85 1.3 SSW 48 56 26 30 1011.0 1011.0 3.0
02/06:00am 12.8 4.3 10.5 86 1.2 SSW 46 56 25 30 1010.2 1010.2 3.0
02/05:30am 12.6 4.6 11.2 91 0.7 S 44 74 24 40 1009.6 1009.6 2.2
02/05:25am 12.9 4.6 11.3 90 0.8 S 46 74 25 40 1009.4 1009.4 1.8
02/05:00am 13.7 5.0 11.2 85 1.3 SSW 48 56 26 30 1008.6 1008.6 1.4
02/04:30am 13.3 6.5 12.0 92 0.7 SSW 39 46 21 25 1008.3 1008.3 1.4
02/04:00am 13.6 7.2 12.0 90 0.9 SSW 37 44 20 24 1007.8 1007.8 1.2
02/03:30am 13.8 6.6 12.0 89 1.0 SSW 41 48 22 26 1007.6 1007.6 1.0
02/03:00am 14.1 5.0 12.5 90 0.9 SSW 52 59 28 32 1007.4 1007.4 0.6
02/02:30am 14.3 4.1 12.0 86 1.2 SSW 57 70 31 38 1006.2 1006.1 0.4
02/02:25am 14.4 4.3 12.3 87 1.1 SSW 57 76 31 41 1006.5 1006.4 0.4
02/02:15am 15.5 8.7 11.9 79 2.0 WSW 39 76 21 41 1005.9 1005.8 0.0
02/02:11am 16.7 12.7 11.8 73 2.7 WNW 24 61 13 33 1006.5 1006.4 0.0
02/02:00am 18.5 14.3 13.6 73 2.8 NNW 28 32 15 17 1005.5 1005.4 0.0
02/01:30am 19.1 12.4 13.3 69 3.3 N 41 48 22 26 1004.8 1004.7 0.0
02/01:00am 19.1 11.5 13.5 70 3.2 N 46 52 25 28 1004.4 1004.3 0.0
02/12:30am 19.4 13.1 13.6 69 3.3 N 39 56 21 30 1004.5 1004.4 0.0
 
Date/Time
EDT
Tmp

°C
App
Tmp
°C
Dew
Point
°C
Rel
Hum
%
Delta-T

°C
Wind Press
QNH
hPa
Press
MSL
hPa
Rain
since
9 am
mm
Dir
 
Spd
km/h
Gust
km/h
Spd
kts
Gust
kts
01/11:30pm 18.1 14.1 14.0 77 2.3 N 28 33 15 18 1004.9 1004.8 0.0
01/11:00pm 18.1 13.9 13.4 74 2.7 N 28 33 15 18 1005.4 1005.3 0.0
01/10:30pm 18.5 14.3 13.6 73 2.8 NNW 28 32 15 17 1006.2 1006.1 0.0
01/10:00pm 18.7 14.0 13.3 71 3.1 N 30 35 16 19 1006.5 1006.4 0.0
01/09:30pm 19.1 13.5 13.3 69 3.3 N 35 41 19 22 1006.7 1006.6 0.0
01/09:00pm 19.7 13.6 12.9 65 3.9 N 37 43 20 23 1006.8 1006.7 0.0
01/08:30pm 19.7 12.8 12.9 65 3.8 N 41 50 22 27 1006.9 1006.8 0.0
01/08:00pm 19.6 13.2 13.1 66 3.7 N 39 46 21 25 1006.7 1006.6 0.0
01/07:30pm 19.9 12.6 12.7 63 4.1 NNW 43 50 23 27 1006.4 1006.3 0.0
01/07:00pm 19.8 13.6 12.8 64 4.0 NNW 37 44 20 24 1006.3 1006.2 0.0
01/06:30pm 19.5 15.2 13.2 67 3.6 NNW 28 33 15 18 1006.8 1006.7 0.0
01/06:00pm 19.2 17.8 13.4 69 3.3 NNW 13 22 7 12 1007.4 1007.4 0.0
01/05:30pm 18.9 16.9 14.0 73 2.8 N 17 24 9 13 1007.4 1007.4 0.0
01/05:00pm 19.2 16.2 13.8 71 3.1 NNE 22 28 12 15 1007.7 1007.7 0.0
01/04:30pm 20.3 16.2 12.8 62 4.2 NNE 26 32 14 17 1008.0 1008.0 0.0
01/04:00pm 20.7 16.7 12.9 61 4.4 NNE 26 32 14 17 1008.4 1008.4 0.0
01/03:30pm 20.9 16.4 12.6 59 4.7 NNE 28 35 15 19 1008.8 1008.8 0.0
01/03:00pm 20.9 14.1 12.1 57 4.9 NNE 39 46 21 25 1008.9 1008.9 0.0
01/02:30pm 20.3 14.0 12.3 60 4.5 N 37 43 20 23 1009.3 1009.3 0.0
01/02:00pm 19.8 13.7 11.6 59 4.5 N 35 41 19 22 1010.0 1010.0 0.0
01/01:30pm 19.3 13.5 12.6 65 3.8 N 35 41 19 22 1010.7 1010.7 0.0
01/01:00pm 19.4 13.3 11.9 62 4.2 N 35 43 19 23 1011.6 1011.6 0.0
01/12:30pm 18.9 15.3 12.9 68 3.4 N 24 35 13 19 1012.3 1012.3 0.0
01/12:00pm 18.2 12.7 11.7 66 3.6 N 32 35 17 19 1012.6 1012.6 0.0
01/11:30am 18.3 11.8 11.6 65 3.7 N 37 43 20 23 1012.9 1012.9 0.0
01/11:00am 17.8 12.0 11.6 67 3.4 N 33 39 18 21 1013.3 1013.3 0.0
01/10:30am 17.6 10.1 10.9 65 3.6 N 41 48 22 26 1013.2 1013.1 0.0
01/10:00am 17.3 10.4 11.6 69 3.1 N 39 48 21 26 1013.6 1013.5 0.0
01/09:30am 17.1 9.8 11.4 69 3.1 N 41 48 22 26 1014.0 1013.9 0.0
01/09:00am 16.7 9.8 11.6 72 2.8 N 39 43 21 23 1014.2 1014.1 0.0
01/08:30am 16.5 9.1 11.2 71 2.9 N 41 48 22 26 1014.3 1014.2 0.0
01/08:00am 16.3 9.7 11.5 73 2.6 N 37 44 20 24 1014.6 1014.5 0.0
01/07:30am 15.8 9.3 11.6 76 2.3 N 37 43 20 23 1015.1 1015.0 0.0
01/07:00am 15.5 9.4 11.9 79 2.0 N 35 39 19 21 1015.4 1015.4 0.0
01/06:30am 15.4 9.3 11.6 78 2.0 N 35 39 19 21 1015.6 1015.6 0.0
01/06:00am 15.3 9.8 11.9 80 1.8 N 32 37 17 20 1016.0 1016.0 0.0
01/05:30am 15.0 10.2 11.6 80 1.8 N 28 33 15 18 1016.4 1016.4 0.0
01/05:00am 14.7 12.0 11.7 82 1.6 NNW 17 19 9 10 1016.8 1016.8 0.0
01/04:30am 14.5 12.2 11.7 83 1.5 NNW 15 17 8 9 1017.1 1017.1 0.0
01/04:00am 14.5 12.2 11.7 83 1.5 NNW 15 19 8 10 1017.4 1017.4 0.0
01/03:30am 14.5 11.8 11.8 84 1.5 N 17 20 9 11 1017.7 1017.7 0.0
01/03:00am 14.3 12.8 12.0 86 1.2 NNW 11 17 6 9 1018.5 1018.5 0.0
01/02:30am 13.9 12.4 11.8 87 1.1 NNW 11 15 6 8 1019.0 1019.0 0.0
01/02:00am 14.1 12.2 11.8 86 1.2 WNW 13 15 7 8 1019.3 1019.3 0.0
01/01:30am 14.2 11.5 11.7 85 1.3 W 17 20 9 11 1019.5 1019.5 0.0
01/01:00am 14.4 11.7 11.6 83 1.5 W 17 19 9 10 1019.8 1019.8 0.0
01/12:30am 14.3 13.4 12.5 89 1.0 W 9 13 5 7 1020.0 1020.0 0.0
01/12:00am 15.3 15.2 14.0 92 0.7 WSW 7 9 4 5 1020.3 1020.3 0.0
 
Date/Time
EDT
Tmp

°C
App
Tmp
°C
Dew
Point
°C
Rel
Hum
%
Delta-T

°C
Wind Press
QNH
hPa
Press
MSL
hPa
Rain
since
9 am
mm
Dir
 
Spd
km/h
Gust
km/h
Spd
kts
Gust
kts
31/11:30pm 15.8 14.6 12.9 83 1.6 WSW 11 15 6 8 1020.7 1020.7 0.0
31/11:00pm 15.1 13.5 12.8 86 1.3 WSW 13 17 7 9 1020.9 1020.9 0.0
31/10:30pm 15.2 15.3 13.9 92 0.7 SW 6 9 3 5 1020.7 1020.7 0.0
31/10:00pm 15.4 15.6 14.1 92 0.7 SSW 6 9 3 5 1020.8 1020.8 0.0
31/09:30pm 15.6 16.1 14.1 91 0.8 WSW 4 6 2 3 1020.5 1020.5 0.0
31/09:00pm 15.8 16.4 14.2 90 0.9 S 4 6 2 3 1020.6 1020.6 0.0
31/08:30pm 16.0 16.1 13.8 87 1.2 ENE 6 7 3 4 1020.4 1020.4 0.0
31/08:00pm 15.4 15.1 13.2 87 1.2 ENE 7 7 4 4 1020.2 1020.2 0.0
31/07:30pm 16.6 17.6 14.2 86 1.4 SSE 2 4 1 2 1020.0 1020.0 0.0
31/07:00pm 17.1 18.4 14.0 82 1.8 CALM 0 2 0 1 1019.7 1019.7 0.0
31/06:30pm 17.6 17.7 13.9 79 2.1 NNE 6 6 3 3 1019.6 1019.6 0.0
31/06:00pm 18.3 17.6 13.2 72 2.9 N 9 11 5 6 1019.4 1019.4 0.0
31/05:30pm 17.8 15.4 14.3 80 2.0 N 20 24 11 13 1019.5 1019.5 0.0
31/05:00pm 18.2 15.4 14.3 78 2.2 N 22 26 12 14 1019.5 1019.5 0.0
31/04:30pm 18.8 16.5 14.1 74 2.7 N 19 20 10 11 1019.7 1019.7 0.0
31/04:00pm 18.8 16.2 13.2 70 3.2 N 19 20 10 11 1019.8 1019.8 0.0
31/03:30pm 19.1 16.9 13.3 69 3.3 N 17 19 9 10 1020.1 1020.1 0.0
31/03:00pm 18.7 16.4 13.1 70 3.2 N 17 20 9 11 1020.3 1020.3 0.0
31/02:30pm 18.7 15.9 12.7 68 3.4 N 19 20 10 11 1020.8 1020.8 0.0
31/02:00pm 18.5 15.6 12.9 70 3.1 N 20 22 11 12 1021.0 1021.0 0.0
31/01:30pm 19.0 16.6 12.7 67 3.5 N 17 20 9 11 1021.5 1021.5 0.0
31/01:00pm 18.3 15.8 11.1 63 3.9 N 15 17 8 9 1021.8 1021.8 0.0
31/12:30pm 17.7 14.6 10.3 62 3.9 N 17 20 9 11 1022.1 1022.1 0.0
31/12:00pm 17.4 15.1 10.5 64 3.7 NNW 13 15 7 8 1022.5 1022.5 0.0
31/11:30am 17.0 13.8 10.1 64 3.6 NNW 17 20 9 11 1022.9 1022.9 0.0
31/11:00am 16.3 14.0 10.4 68 3.1 N 13 17 7 9 1023.5 1023.5 0.0
31/10:30am 16.1 12.5 10.0 67 3.2 NNW 19 20 10 11 1023.6 1023.6 0.0
31/10:00am 15.9 13.0 11.1 73 2.6 N 17 19 9 10 1023.6 1023.6 0.0
31/09:30am 14.5 11.3 9.9 74 2.4 N 17 19 9 10 1023.8 1023.8 0.0
31/09:00am 13.9 10.9 10.7 81 1.7 N 17 22 9 12 1023.7 1023.7 0.0
31/08:30am 13.3 11.3 10.3 82 1.6 N 11 17 6 9 1023.8 1023.8 0.0
31/08:00am 12.1 11.0 9.8 86 1.2 NNE 6 7 3 4 1023.6 1023.6 0.0
31/07:30am 11.8 10.5 9.2 84 1.3 NW 6 7 3 4 1023.4 1023.4 0.0
31/07:00am 12.0 10.5 9.2 83 1.4 NNW 7 9 4 5 1023.0 1023.0 0.0
31/06:30am 11.6 10.2 9.7 88 1.0 N 7 9 4 5 1022.9 1022.9 0.0
31/06:00am 12.1 10.5 8.8 80 1.6 N 7 9 4 5 1022.7 1022.7 0.0
31/05:30am 11.9 10.7 9.6 86 1.2 WNW 6 9 3 5 1022.7 1022.7 0.0
31/05:00am 12.2 11.1 9.8 85 1.2 N 6 6 3 3 1022.3 1022.3 0.0
31/04:30am 12.3 11.2 9.9 85 1.2 N 6 6 3 3 1022.4 1022.4 0.0
31/04:00am 12.3 11.4 10.5 89 0.9 N 6 7 3 4 1022.5 1022.5 0.0
31/03:30am 12.7 11.8 9.3 80 1.7 N 4 6 2 3 1022.7 1022.7 0.0
31/03:00am 12.1 10.7 9.5 84 1.3 W 7 9 4 5 1022.8 1022.8 0.0
31/02:30am 12.1 11.4 10.2 88 1.0 NW 4 7 2 4 1023.0 1023.0 0.0
31/02:00am 12.2 11.0 10.4 89 0.9 WNW 7 11 4 6 1022.9 1022.9 0.0
31/01:30am 12.9 12.6 11.6 92 0.7 W 4 7 2 4 1022.8 1022.8 0.0
31/01:00am 13.4 13.4 12.3 93 0.6 N 4 6 2 3 1022.8 1022.8 0.0
31/12:30am 13.9 13.8 12.1 89 1.0 NNW 4 7 2 4 1022.8 1022.8 0.0
31/12:00am 14.0 13.7 12.6 91 0.8 NW 6 9 3 5 1022.8 1022.8 0.0
 
Date/Time
EDT
Tmp

°C
App
Tmp
°C
Dew
Point
°C
Rel
Hum
%
Delta-T

°C
Wind Press
QNH
hPa
Press
MSL
hPa
Rain
since
9 am
mm
Dir
 
Spd
km/h
Gust
km/h
Spd
kts
Gust
kts
30/11:30pm 14.1 13.7 12.5 90 0.9 ENE 6 7 3 4 1023.0 1023.0 0.0
30/11:00pm 14.5 14.1 12.5 88 1.1 SE 6 7 3 4 1022.9 1022.9 0.0
30/10:30pm 15.0 15.9 12.9 87 1.2 CALM 0 0 0 0 1023.0 1023.0 0.0
30/10:00pm 14.9 15.7 12.6 86 1.3 CALM 0 0 0 0 1022.8 1022.8 0.0
30/09:30pm 15.1 15.6 12.8 86 1.3 ENE 2 4 1 2 1022.6 1022.6 0.0
30/09:00pm 15.1 16.0 12.8 86 1.3 CALM 0 2 0 1 1022.3 1022.3 0.0
30/08:30pm 15.3 15.5 13.0 86 1.3 SSE 4 6 2 3 1021.7 1021.7 0.0
30/08:00pm 15.4 13.5 13.1 86 1.3 SSE 15 20 8 11 1021.3 1021.3 0.0
30/07:30pm 15.8 12.3 13.5 86 1.3 S 24 28 13 15 1020.4 1020.4 0.0
30/07:00pm 16.8 13.9 13.9 83 1.6 S 22 28 12 15 1019.9 1019.9 0.0

Latest Capital City Observations: Canberra | Sydney | Melbourne | Brisbane | Adelaide | Perth | Hobart | Darwin

Other Formats:

Comma delimited format used in spreadsheet applications
http://www.bom.gov.au/fwo/IDT60901/IDT60901.95988.axf

JavaScript Object Notation format (JSON) in row-major order
http://www.bom.gov.au/fwo/IDT60901/IDT60901.95988.json